createdAt,value
2022-09-15T00:01:05.162Z,16.42
2022-09-15T00:03:35.623Z,16.44
2022-09-15T00:06:07.242Z,16.45
2022-09-15T00:08:38.063Z,16.46
2022-09-15T00:11:11.670Z,16.48
2022-09-15T00:13:42.846Z,16.48
2022-09-15T00:16:15.406Z,16.50
2022-09-15T00:18:46.858Z,16.50
2022-09-15T00:21:33.469Z,16.51
2022-09-15T00:24:04.793Z,16.52
2022-09-15T00:26:33.569Z,16.53
2022-09-15T00:29:05.428Z,16.53
2022-09-15T00:31:35.842Z,16.54
2022-09-15T00:34:07.109Z,16.55
2022-09-15T00:36:37.623Z,16.57
2022-09-15T00:39:08.107Z,16.58
2022-09-15T00:41:39.539Z,16.59
2022-09-15T00:44:50.435Z,16.59
2022-09-15T00:47:24.806Z,16.60
2022-09-15T00:49:59.503Z,16.61
2022-09-15T00:52:38.355Z,16.61
2022-09-15T00:55:16.813Z,16.61
2022-09-15T00:57:52.226Z,16.62
2022-09-15T01:00:26.504Z,16.62
2022-09-15T01:02:59.016Z,16.64
2022-09-15T01:05:34.607Z,16.66
2022-09-15T01:08:11.081Z,16.69
2022-09-15T01:10:42.692Z,16.71
2022-09-15T01:13:14.594Z,16.75
2022-09-15T01:15:56.782Z,16.76
2022-09-15T01:18:37.970Z,16.79
2022-09-15T01:21:31.568Z,16.80
2022-09-15T01:24:42.412Z,16.84
2022-09-15T01:27:41.730Z,16.86
2022-09-15T01:30:16.309Z,16.88
2022-09-15T01:33:05.450Z,16.89
2022-09-15T01:35:46.929Z,16.90
2022-09-15T01:38:27.291Z,16.91
2022-09-15T01:41:01.220Z,16.92
2022-09-15T01:43:34.792Z,16.92
2022-09-15T01:46:06.967Z,16.92
2022-09-15T01:48:40.511Z,16.93
2022-09-15T01:51:11.261Z,16.93
2022-09-15T01:53:42.613Z,16.94
2022-09-15T01:56:14.561Z,16.93
2022-09-15T01:58:44.952Z,16.93
2022-09-15T02:01:18.568Z,16.93
2022-09-15T02:03:55.410Z,16.93
2022-09-15T02:06:36.762Z,16.92
2022-09-15T02:09:08.798Z,16.91
2022-09-15T02:11:42.574Z,16.90
2022-09-15T02:14:20.851Z,16.89
2022-09-15T02:16:55.210Z,16.88
2022-09-15T02:19:32.175Z,16.87
2022-09-15T02:22:10.567Z,16.85
2022-09-15T02:24:45.738Z,16.84
2022-09-15T02:27:21.833Z,16.82
2022-09-15T02:29:56.119Z,16.81
2022-09-15T02:32:29.372Z,16.79
2022-09-15T02:35:06.726Z,16.78
2022-09-15T02:37:38.565Z,16.77
2022-09-15T02:40:11.383Z,16.76
2022-09-15T02:42:42.618Z,16.75
2022-09-15T02:45:11.937Z,16.73
2022-09-15T02:47:42.317Z,16.72
2022-09-15T02:50:12.789Z,16.70
2022-09-15T02:52:43.133Z,16.69
2022-09-15T02:55:13.996Z,16.68
2022-09-15T02:57:44.668Z,16.68
2022-09-15T03:00:17.560Z,16.67
2022-09-15T03:02:51.299Z,16.66
2022-09-15T03:05:24.144Z,16.64
2022-09-15T03:07:55.729Z,16.64
2022-09-15T03:10:27.843Z,16.63
2022-09-15T03:12:58.215Z,16.62
2022-09-15T03:15:28.994Z,16.61
2022-09-15T03:17:59.512Z,16.61
2022-09-15T03:20:30.293Z,16.61
2022-09-15T03:23:00.633Z,16.60
2022-09-15T03:25:31.003Z,16.59
2022-09-15T03:28:01.384Z,16.58
2022-09-15T03:30:31.774Z,16.57
2022-09-15T03:33:02.113Z,16.56
2022-09-15T03:35:32.478Z,16.56
2022-09-15T03:38:03.233Z,16.56
2022-09-15T03:40:34.199Z,16.56
2022-09-15T03:43:04.526Z,16.56
2022-09-15T03:45:34.892Z,16.56
2022-09-15T03:48:06.434Z,16.56
2022-09-15T03:50:37.125Z,16.55
2022-09-15T03:53:07.499Z,16.55
2022-09-15T03:55:37.871Z,16.55
2022-09-15T03:58:08.250Z,16.55
2022-09-15T04:00:38.829Z,16.55
2022-09-15T04:03:09.759Z,16.55
2022-09-15T04:05:40.598Z,16.55
2022-09-15T04:08:14.131Z,16.56
2022-09-15T04:10:44.576Z,16.54
2022-09-15T04:13:15.227Z,16.50
2022-09-15T04:15:45.801Z,16.47
2022-09-15T04:18:16.326Z,16.43
2022-09-15T04:20:46.647Z,16.40
2022-09-15T04:23:16.937Z,16.38
2022-09-15T04:25:54.780Z,16.34
2022-09-15T04:28:25.850Z,16.31
2022-09-15T04:31:03.873Z,16.29
2022-09-15T04:33:34.753Z,16.27
2022-09-15T04:36:07.543Z,16.26
2022-09-15T04:38:38.057Z,16.24
2022-09-15T04:41:09.321Z,16.22
2022-09-15T04:43:38.212Z,16.17
2022-09-15T04:46:08.920Z,16.15
2022-09-15T04:48:39.519Z,16.15
2022-09-15T04:51:13.562Z,16.15
2022-09-15T04:53:44.707Z,16.14
2022-09-15T04:56:18.282Z,16.14
2022-09-15T04:58:51.900Z,16.12
2022-09-15T05:01:25.544Z,16.08
2022-09-15T05:03:56.824Z,16.06
2022-09-15T05:06:27.326Z,16.03
2022-09-15T05:08:59.747Z,16.01
2022-09-15T05:11:32.889Z,15.96
2022-09-15T05:14:03.479Z,15.99
2022-09-15T05:16:34.096Z,15.98
2022-09-15T05:19:05.191Z,15.96
2022-09-15T05:21:35.906Z,15.91
2022-09-15T05:24:06.768Z,15.84
2022-09-15T05:26:37.475Z,15.81
2022-09-15T05:29:08.205Z,15.79
2022-09-15T05:31:39.012Z,15.78
2022-09-15T05:34:09.429Z,15.77
2022-09-15T05:36:39.942Z,15.74
2022-09-15T05:39:11.571Z,15.71
2022-09-15T05:42:09.416Z,15.70
2022-09-15T05:44:42.921Z,15.66
2022-09-15T05:47:13.329Z,15.60
2022-09-15T05:49:43.931Z,15.55
2022-09-15T05:52:14.397Z,15.49
2022-09-15T05:54:44.793Z,15.45
2022-09-15T05:57:15.197Z,15.42
2022-09-15T05:59:45.678Z,15.39
2022-09-15T06:02:16.175Z,15.38
2022-09-15T06:04:46.508Z,15.37
2022-09-15T06:07:17.444Z,15.35
2022-09-15T06:09:47.910Z,15.33
2022-09-15T06:12:19.233Z,15.31
2022-09-15T06:14:50.527Z,15.28
2022-09-15T06:17:22.193Z,15.25
2022-09-15T06:19:52.797Z,15.21
2022-09-15T06:22:23.198Z,15.17
2022-09-15T06:24:53.670Z,15.14
2022-09-15T06:27:24.123Z,15.11
2022-09-15T06:29:54.650Z,15.07
2022-09-15T06:32:25.142Z,15.03
2022-09-15T06:34:55.582Z,14.96
2022-09-15T06:37:26.158Z,14.90
2022-09-15T06:39:57.496Z,14.80
2022-09-15T06:42:28.337Z,14.71
2022-09-15T06:44:59.790Z,14.64
2022-09-15T06:47:34.043Z,14.54
2022-09-15T06:50:05.061Z,14.44
2022-09-15T06:52:36.251Z,14.39
2022-09-15T06:55:09.522Z,14.31
2022-09-15T06:57:39.827Z,14.25
2022-09-15T07:00:12.458Z,14.17
2022-09-15T07:02:42.868Z,14.13
2022-09-15T07:05:13.422Z,14.10
2022-09-15T07:07:44.052Z,14.07
2022-09-15T07:10:15.713Z,14.02
2022-09-15T07:12:46.226Z,14.00
2022-09-15T07:15:17.122Z,13.98
2022-09-15T07:17:47.410Z,13.99
2022-09-15T07:20:18.053Z,14.00
2022-09-15T07:22:48.544Z,14.02
2022-09-15T07:25:19.375Z,14.02
2022-09-15T07:27:49.966Z,14.01
2022-09-15T07:30:20.464Z,14.03
2022-09-15T07:32:50.812Z,14.07
2022-09-15T07:35:21.870Z,14.11
2022-09-15T07:37:52.517Z,14.17
2022-09-15T07:40:23.060Z,14.24
2022-09-15T07:42:53.833Z,14.28
2022-09-15T07:45:24.326Z,14.31
2022-09-15T07:48:26.234Z,14.35
2022-09-15T07:50:57.271Z,14.43
2022-09-15T07:53:30.693Z,14.47
2022-09-15T07:56:01.127Z,14.54
2022-09-15T07:58:33.485Z,14.63
2022-09-15T08:01:11.181Z,14.74
2022-09-15T08:03:43.804Z,14.80
2022-09-15T08:06:14.890Z,14.89
2022-09-15T08:08:45.598Z,14.94
2022-09-15T08:11:19.275Z,15.01
2022-09-15T08:13:52.421Z,15.09
2022-09-15T08:16:25.075Z,15.18
2022-09-15T08:18:56.806Z,15.28
2022-09-15T08:21:28.438Z,15.36
2022-09-15T08:24:01.327Z,15.41
2022-09-15T08:26:32.293Z,15.45
2022-09-15T08:29:02.615Z,15.48
2022-09-15T08:31:33.178Z,15.57
2022-09-15T08:34:06.746Z,15.63
2022-09-15T08:36:37.264Z,15.70
2022-09-15T08:39:08.470Z,15.80
2022-09-15T08:41:45.418Z,15.93
2022-09-15T08:44:33.224Z,16.04
2022-09-15T08:47:13.593Z,16.11
2022-09-15T08:49:55.036Z,16.19
2022-09-15T08:52:32.160Z,16.30
2022-09-15T08:55:07.225Z,16.40
2022-09-15T08:57:37.739Z,16.46
2022-09-15T09:00:14.602Z,16.44
2022-09-15T09:03:17.448Z,16.44
2022-09-15T09:05:55.617Z,16.39
2022-09-15T09:08:43.129Z,16.31
2022-09-15T09:11:21.934Z,16.26
2022-09-15T09:14:04.488Z,16.26
2022-09-15T09:16:51.584Z,16.29
2022-09-15T09:19:42.232Z,16.37
2022-09-15T09:22:17.421Z,16.46
2022-09-15T09:24:50.517Z,16.58
2022-09-15T09:27:24.974Z,16.67
2022-09-15T09:30:00.472Z,16.69
2022-09-15T09:32:41.523Z,16.72
2022-09-15T09:35:20.345Z,16.74
2022-09-15T09:37:53.110Z,16.65
2022-09-15T09:40:24.256Z,16.49
2022-09-15T09:42:53.408Z,16.36
2022-09-15T09:45:24.327Z,16.21
2022-09-15T09:48:01.340Z,16.10
2022-09-15T09:50:38.457Z,16.05
2022-09-15T09:53:31.060Z,16.02
2022-09-15T09:56:26.148Z,16.02
2022-09-15T09:58:56.895Z,16.08
2022-09-15T10:01:28.281Z,16.19
2022-09-15T10:04:18.506Z,16.32
2022-09-15T10:06:49.182Z,16.44
2022-09-15T10:09:20.716Z,16.56
2022-09-15T10:11:53.774Z,16.61
2022-09-15T10:14:27.262Z,16.62
2022-09-15T10:17:03.068Z,16.57
2022-09-15T10:19:36.466Z,16.53
2022-09-15T10:22:07.360Z,16.50
2022-09-15T10:24:40.415Z,16.47
2022-09-15T10:27:20.156Z,16.48
2022-09-15T10:29:50.476Z,16.50
2022-09-15T10:32:25.970Z,16.54
2022-09-15T10:35:05.513Z,16.55
2022-09-15T10:37:38.670Z,16.56
2022-09-15T10:40:26.526Z,16.52
2022-09-15T10:43:02.344Z,16.45
2022-09-15T10:45:39.324Z,16.39
2022-09-15T10:48:34.718Z,16.39
2022-09-15T10:51:17.926Z,16.41
2022-09-15T10:54:14.297Z,16.45
2022-09-15T10:56:49.391Z,16.49
2022-09-15T10:59:40.788Z,16.49
2022-09-15T11:02:21.445Z,16.45
2022-09-15T11:05:23.794Z,16.39
2022-09-15T11:08:06.222Z,16.35
2022-09-15T11:10:46.303Z,16.34
2022-09-15T11:13:27.076Z,16.33
2022-09-15T11:16:07.774Z,16.40
2022-09-15T11:18:54.123Z,16.56
2022-09-15T11:21:30.791Z,16.83
2022-09-15T11:24:16.751Z,17.19
2022-09-15T11:26:51.519Z,17.51
2022-09-15T11:29:26.822Z,17.91
2022-09-15T11:34:44.619Z,18.77
2022-09-15T11:37:20.601Z,18.90
2022-09-15T11:39:57.415Z,19.15
2022-09-15T11:42:35.369Z,19.37
2022-09-15T11:45:16.976Z,19.69
2022-09-15T11:47:51.359Z,20.05
2022-09-15T11:50:25.415Z,20.33
2022-09-15T11:53:03.952Z,20.59
2022-09-15T11:55:38.311Z,20.96
2022-09-15T11:58:24.455Z,21.31
2022-09-15T12:00:59.939Z,21.66
2022-09-15T12:03:36.656Z,21.86
2022-09-15T12:06:13.550Z,22.20
2022-09-15T12:08:51.189Z,22.20
2022-09-15T12:11:24.894Z,22.04
2022-09-15T12:13:56.395Z,21.81
2022-09-15T12:16:28.596Z,21.63
2022-09-15T12:19:03.834Z,21.67
2022-09-15T12:21:38.691Z,21.75
2022-09-15T12:24:18.915Z,21.62
2022-09-15T12:26:49.395Z,21.55
2022-09-15T12:29:49.082Z,21.46
2022-09-15T12:32:28.742Z,21.63
2022-09-15T12:35:03.563Z,21.57
2022-09-15T12:37:40.957Z,21.37
2022-09-15T12:40:33.362Z,21.09
2022-09-15T12:43:18.096Z,20.76
2022-09-15T12:45:57.859Z,20.45
2022-09-15T12:48:30.788Z,20.13
2022-09-15T12:51:06.985Z,19.81
2022-09-15T12:53:47.470Z,19.49
2022-09-15T12:56:27.291Z,19.17
2022-09-15T12:59:06.523Z,18.91
2022-09-15T13:01:49.543Z,18.73
2022-09-15T13:04:49.936Z,18.67
2022-09-15T13:07:53.354Z,18.66
2022-09-15T13:10:34.376Z,18.67
2022-09-15T13:13:19.318Z,18.74
2022-09-15T13:15:53.243Z,18.80
2022-09-15T13:18:25.045Z,18.91
2022-09-15T13:21:05.386Z,19.00
2022-09-15T13:23:42.048Z,19.04
2022-09-15T13:26:17.866Z,19.13
2022-09-15T13:28:52.761Z,19.68
2022-09-15T13:31:35.369Z,20.38
2022-09-15T13:40:50.691Z,21.79
2022-09-15T13:43:47.380Z,21.86
2022-09-15T13:46:32.727Z,22.01
2022-09-15T13:49:24.932Z,22.24
2022-09-15T13:52:02.721Z,22.30
2022-09-15T13:54:33.196Z,22.02
2022-09-15T13:57:05.042Z,21.73
2022-09-15T13:59:36.172Z,21.52
2022-09-15T14:02:12.771Z,21.37
2022-09-15T14:04:51.948Z,21.22
2022-09-15T14:07:25.714Z,21.42
2022-09-15T14:09:56.250Z,21.64
2022-09-15T14:12:26.649Z,21.63
2022-09-15T14:14:59.051Z,21.52
2022-09-15T14:17:31.878Z,21.43
2022-09-15T14:20:06.001Z,21.25
2022-09-15T14:22:36.623Z,21.10
2022-09-15T14:25:16.733Z,20.99
2022-09-15T14:27:49.623Z,20.95
2022-09-15T14:30:26.691Z,20.84
2022-09-15T14:33:00.868Z,20.72
2022-09-15T14:35:37.426Z,20.55
2022-09-15T14:38:07.880Z,20.31
2022-09-15T14:40:39.991Z,20.14
2022-09-15T14:43:28.077Z,20.12
2022-09-15T14:46:10.162Z,20.31
2022-09-15T14:48:41.272Z,20.85
2022-09-15T14:51:16.738Z,21.04
2022-09-15T14:53:49.996Z,21.01
2022-09-15T14:56:24.515Z,20.91
2022-09-15T14:58:57.808Z,20.78
2022-09-15T15:01:33.549Z,20.64
2022-09-15T15:04:11.967Z,20.48
2022-09-15T15:06:52.539Z,20.34
2022-09-15T15:09:28.227Z,20.21
2022-09-15T15:12:03.206Z,20.11
2022-09-15T15:14:34.796Z,20.04
2022-09-15T15:17:24.849Z,19.95
2022-09-15T15:20:01.633Z,19.82
2022-09-15T15:22:31.873Z,19.71
2022-09-15T15:25:02.297Z,19.63
2022-09-15T15:27:51.961Z,19.52
2022-09-15T15:30:47.411Z,19.39
2022-09-15T15:33:28.592Z,19.24
2022-09-15T15:36:11.838Z,19.14
2022-09-15T15:38:47.740Z,19.07
2022-09-15T15:41:23.473Z,19.01
2022-09-15T15:44:07.736Z,18.97
2022-09-15T15:46:56.080Z,18.95
2022-09-15T15:49:29.581Z,18.94
2022-09-15T15:52:01.649Z,18.90
2022-09-15T15:54:34.451Z,18.86
2022-09-15T15:57:23.778Z,18.82
2022-09-15T15:59:57.311Z,18.77
2022-09-15T16:02:28.252Z,18.73
2022-09-15T16:04:58.662Z,18.68
2022-09-15T16:07:33.192Z,18.62
2022-09-15T16:10:04.907Z,18.55
2022-09-15T16:12:35.626Z,18.49
2022-09-15T16:15:14.264Z,18.44
2022-09-15T16:17:46.866Z,18.43
2022-09-15T16:20:20.548Z,18.41
2022-09-15T16:22:51.015Z,18.39
2022-09-15T16:25:28.753Z,18.38
2022-09-15T16:27:59.976Z,18.36
2022-09-15T16:30:28.877Z,18.34
2022-09-15T16:32:59.725Z,18.32
2022-09-15T16:35:40.367Z,18.29
2022-09-15T16:38:11.389Z,18.25
2022-09-15T16:40:41.688Z,18.20
2022-09-15T16:43:16.354Z,18.13
2022-09-15T16:45:47.506Z,18.06
2022-09-15T16:48:17.849Z,17.99
2022-09-15T16:51:09.588Z,17.93
2022-09-15T16:53:41.686Z,17.91
2022-09-15T16:56:14.525Z,17.91
2022-09-15T16:58:45.276Z,17.89
2022-09-15T17:01:20.249Z,17.86
2022-09-15T17:03:51.232Z,17.82
2022-09-15T17:06:22.153Z,17.78
2022-09-15T17:08:52.805Z,17.70
2022-09-15T17:11:25.493Z,17.63
2022-09-15T17:13:55.855Z,17.56
2022-09-15T17:16:26.313Z,17.50
2022-09-15T17:18:56.768Z,17.42
2022-09-15T17:21:27.366Z,17.32
2022-09-15T17:23:57.755Z,17.19
2022-09-15T17:26:31.248Z,17.07
2022-09-15T17:29:02.081Z,16.92
2022-09-15T17:31:32.585Z,16.79
2022-09-15T17:34:02.985Z,16.64
2022-09-15T17:36:37.252Z,16.52
2022-09-15T17:39:09.009Z,16.40
2022-09-15T17:41:39.633Z,16.29
2022-09-15T17:44:13.005Z,16.20
2022-09-15T17:46:43.464Z,16.09
2022-09-15T17:49:13.864Z,16.01
2022-09-15T17:51:44.265Z,15.91
2022-09-15T17:54:14.520Z,15.82
2022-09-15T17:56:44.932Z,15.75
2022-09-15T17:59:16.328Z,15.67
2022-09-15T18:01:50.513Z,15.59
2022-09-15T18:04:20.913Z,15.53
2022-09-15T18:06:52.105Z,15.47
2022-09-15T18:09:22.693Z,15.41
2022-09-15T18:14:22.946Z,15.30
2022-09-15T18:16:55.870Z,15.24
2022-09-15T18:19:26.463Z,15.18
2022-09-15T18:21:58.541Z,15.11
2022-09-15T18:24:29.820Z,15.04
2022-09-15T18:26:58.696Z,14.96
2022-09-15T18:29:29.218Z,14.90
2022-09-15T18:32:03.025Z,14.83
2022-09-15T18:34:33.566Z,14.78
2022-09-15T18:37:04.051Z,14.74
2022-09-15T18:39:36.942Z,14.71
2022-09-15T18:42:08.081Z,14.68
2022-09-15T18:44:40.261Z,14.66
2022-09-15T18:47:10.541Z,14.64
2022-09-15T18:49:40.937Z,14.61
2022-09-15T18:52:11.442Z,14.60
2022-09-15T18:54:41.761Z,14.59
2022-09-15T18:57:12.138Z,14.59
2022-09-15T18:59:42.530Z,14.58
2022-09-15T19:02:14.441Z,14.58
2022-09-15T19:04:45.409Z,14.59
2022-09-15T19:07:15.913Z,14.59
2022-09-15T19:09:52.184Z,14.60
2022-09-15T19:12:26.597Z,14.59
2022-09-15T19:14:57.094Z,14.59
2022-09-15T19:17:27.721Z,14.59
2022-09-15T19:20:00.313Z,14.60
2022-09-15T19:22:30.679Z,14.60
2022-09-15T19:25:01.179Z,14.60
2022-09-15T19:27:31.630Z,14.60
2022-09-15T19:30:02.274Z,14.61
2022-09-15T19:32:34.666Z,14.61
2022-09-15T19:35:05.828Z,14.60
2022-09-15T19:37:38.896Z,14.61
2022-09-15T19:40:12.128Z,14.62
2022-09-15T19:42:44.394Z,14.63
2022-09-15T19:45:15.741Z,14.63
2022-09-15T19:47:46.195Z,14.63
2022-09-15T19:50:16.619Z,14.62
2022-09-15T19:52:47.032Z,14.62
2022-09-15T19:55:18.229Z,14.61
2022-09-15T19:57:47.481Z,14.61
2022-09-15T20:00:18.277Z,14.60
2022-09-15T20:02:51.012Z,14.60
2022-09-15T20:05:21.520Z,14.59
2022-09-15T20:07:52.013Z,14.59
2022-09-15T20:10:22.439Z,14.62
2022-09-15T20:12:53.094Z,14.64
2022-09-15T20:15:23.625Z,14.69
2022-09-15T20:17:57.807Z,14.78
2022-09-15T20:20:31.378Z,14.87
2022-09-15T20:23:02.032Z,14.93
2022-09-15T20:25:32.587Z,14.96
2022-09-15T20:28:03.049Z,14.99
2022-09-15T20:30:33.602Z,15.02
2022-09-15T20:33:04.181Z,15.04
2022-09-15T20:35:36.775Z,15.08
2022-09-15T20:38:07.319Z,15.10
2022-09-15T20:40:40.075Z,15.12
2022-09-15T20:43:10.483Z,15.15
2022-09-15T20:45:41.198Z,15.16
2022-09-15T20:48:11.659Z,15.18
2022-09-15T20:50:42.061Z,15.20
2022-09-15T20:53:12.593Z,15.21
2022-09-15T20:55:48.797Z,15.22
2022-09-15T20:58:19.378Z,15.22
2022-09-15T21:00:49.953Z,15.23
2022-09-15T21:03:20.662Z,15.23
2022-09-15T21:05:59.052Z,15.23
2022-09-15T21:08:29.776Z,15.22
2022-09-15T21:11:00.373Z,15.20
2022-09-15T21:13:33.588Z,15.19
2022-09-15T21:16:07.813Z,15.17
2022-09-15T21:18:40.047Z,15.15
2022-09-15T21:21:12.966Z,15.13
2022-09-15T21:23:45.653Z,15.10
2022-09-15T21:26:17.490Z,15.07
2022-09-15T21:28:48.842Z,15.04
2022-09-15T21:31:19.011Z,15.01
2022-09-15T21:33:50.642Z,14.99
2022-09-15T21:36:23.247Z,14.98
2022-09-15T21:38:57.086Z,14.95
2022-09-15T21:41:29.847Z,14.93
2022-09-15T21:44:01.049Z,14.93
2022-09-15T21:46:32.773Z,14.92
2022-09-15T21:49:03.451Z,14.91
2022-09-15T21:51:34.050Z,14.93
2022-09-15T21:54:04.971Z,14.94
2022-09-15T21:56:35.434Z,14.94
2022-09-15T21:59:09.016Z,14.95
2022-09-15T22:01:40.525Z,14.95
2022-09-15T22:04:12.051Z,14.95
2022-09-15T22:06:43.767Z,14.93
2022-09-15T22:09:18.077Z,14.94
2022-09-15T22:11:49.180Z,14.94
2022-09-15T22:14:19.655Z,14.92
2022-09-15T22:16:50.298Z,14.91
2022-09-15T22:19:21.708Z,14.89
2022-09-15T22:21:52.119Z,14.89
2022-09-15T22:24:22.684Z,14.87
2022-09-15T22:26:53.263Z,14.85
2022-09-15T22:29:24.059Z,14.83
2022-09-15T22:31:54.546Z,14.82
2022-09-15T22:34:25.032Z,14.81
2022-09-15T22:36:55.441Z,14.79
2022-09-15T22:39:38.657Z,14.78
2022-09-15T22:42:14.689Z,14.77
2022-09-15T22:44:46.193Z,14.76
2022-09-15T22:47:16.642Z,14.74
2022-09-15T22:49:47.306Z,14.72
2022-09-15T22:52:17.900Z,14.69
2022-09-15T22:54:48.300Z,14.66
2022-09-15T22:57:18.769Z,14.63
2022-09-15T22:59:49.153Z,14.60
2022-09-15T23:02:19.684Z,14.57
2022-09-15T23:04:50.304Z,14.54
2022-09-15T23:07:21.022Z,14.51
2022-09-15T23:09:51.437Z,14.48
2022-09-15T23:12:21.878Z,14.45
2022-09-15T23:14:52.381Z,14.41
2022-09-15T23:17:22.879Z,14.37
2022-09-15T23:19:53.470Z,14.32
2022-09-15T23:22:23.908Z,14.29
2022-09-15T23:24:54.468Z,14.25
2022-09-15T23:27:24.845Z,14.23
2022-09-15T23:29:56.697Z,14.21
2022-09-15T23:32:27.090Z,14.18
2022-09-15T23:34:57.525Z,14.14
2022-09-15T23:37:27.955Z,14.11
2022-09-15T23:39:58.612Z,14.09
2022-09-15T23:42:29.253Z,14.06
2022-09-15T23:44:59.607Z,14.03
2022-09-15T23:47:30.097Z,14.01
2022-09-15T23:50:00.681Z,13.99
2022-09-15T23:52:31.354Z,13.97
2022-09-15T23:55:02.432Z,13.95
2022-09-15T23:57:32.921Z,13.93
